createdAt,value
2022-12-11T00:00:33.600Z,79.3
2022-12-11T00:01:36.736Z,79.3
2022-12-11T00:02:39.451Z,79.3
2022-12-11T00:03:42.607Z,79.4
2022-12-11T00:04:46.139Z,79.3
2022-12-11T00:05:49.235Z,79.5
2022-12-11T00:06:52.724Z,79.5
2022-12-11T00:07:56.005Z,79.1
2022-12-11T00:08:58.636Z,78.8
2022-12-11T00:10:01.143Z,78.8
2022-12-11T00:11:04.218Z,78.9
2022-12-11T00:12:07.072Z,78.9
2022-12-11T00:13:09.560Z,78.8
2022-12-11T00:14:12.334Z,78.7
2022-12-11T00:15:14.906Z,78.6
2022-12-11T00:16:27.379Z,78.5
2022-12-11T00:17:30.417Z,78.5
2022-12-11T00:18:33.850Z,78.1
2022-12-11T00:19:37.007Z,78.2
2022-12-11T00:20:39.731Z,78.3
2022-12-11T00:21:42.829Z,78.4
2022-12-11T00:22:46.911Z,78.4
2022-12-11T00:23:49.998Z,78.5
2022-12-11T00:24:53.254Z,78.4
2022-12-11T00:25:56.681Z,78.3
2022-12-11T00:26:59.733Z,78.3
2022-12-11T00:28:02.835Z,78.3
2022-12-11T00:29:05.697Z,78.5
2022-12-11T00:30:08.676Z,78.7
2022-12-11T00:31:11.386Z,78.9
2022-12-11T00:32:14.162Z,79
2022-12-11T00:33:17.071Z,79
2022-12-11T00:34:19.845Z,79.1
2022-12-11T00:35:22.281Z,79.2
2022-12-11T00:36:25.437Z,79.3
2022-12-11T00:37:28.581Z,79.2
2022-12-11T00:38:32.570Z,79.3
2022-12-11T00:39:35.288Z,79.2
2022-12-11T00:40:38.296Z,79.3
2022-12-11T00:41:41.338Z,79.3
2022-12-11T00:42:43.823Z,79.3
2022-12-11T00:43:46.314Z,79.2
2022-12-11T00:44:49.357Z,79.1
2022-12-11T00:45:53.076Z,79.1
2022-12-11T00:46:56.182Z,79
2022-12-11T00:47:59.260Z,78.8
2022-12-11T00:49:01.760Z,78.8
2022-12-11T00:50:04.456Z,78.9
2022-12-11T00:51:07.298Z,78.8
2022-12-11T00:52:10.646Z,78.7
2022-12-11T00:53:13.665Z,78.7
2022-12-11T00:54:17.500Z,78.6
2022-12-11T00:55:20.951Z,78.5
2022-12-11T00:56:23.379Z,78.5
2022-12-11T00:57:25.951Z,78.6
2022-12-11T00:58:28.453Z,78.5
2022-12-11T00:59:31.449Z,78.4
2022-12-11T01:00:34.513Z,78.4
2022-12-11T01:01:37.622Z,78.6
2022-12-11T01:02:40.660Z,78.6
2022-12-11T01:03:44.434Z,78.6
2022-12-11T01:04:47.126Z,78.5
2022-12-11T01:05:48.707Z,78.4
2022-12-11T01:06:51.235Z,78.4
2022-12-11T01:07:54.639Z,78.3
2022-12-11T01:08:57.799Z,78.3
2022-12-11T01:10:01.339Z,78.3
2022-12-11T01:11:04.125Z,78.2
2022-12-11T01:12:06.827Z,78.3
2022-12-11T01:13:09.955Z,78.3
2022-12-11T01:14:13.012Z,78.3
2022-12-11T01:15:16.064Z,78.2
2022-12-11T01:16:18.951Z,78.2
2022-12-11T01:17:22.061Z,78.2
2022-12-11T01:18:25.177Z,78
2022-12-11T01:19:27.976Z,78.1
2022-12-11T01:20:29.916Z,78.3
2022-12-11T01:21:32.488Z,78.3
2022-12-11T01:22:36.165Z,78.1
2022-12-11T01:23:39.028Z,78.3
2022-12-11T01:24:42.231Z,78.3
2022-12-11T01:25:45.759Z,78.1
2022-12-11T01:26:48.910Z,78.1
2022-12-11T01:27:50.929Z,78.2
2022-12-11T01:28:53.980Z,78.1
2022-12-11T01:29:56.469Z,78
2022-12-11T01:30:59.706Z,78
2022-12-11T01:32:02.705Z,77.9
2022-12-11T01:33:05.928Z,77.8
2022-12-11T01:34:09.182Z,77.9
2022-12-11T01:35:13.434Z,78
2022-12-11T01:36:15.939Z,77.9
2022-12-11T01:37:18.729Z,77.9
2022-12-11T01:38:21.435Z,77.8
2022-12-11T01:39:24.438Z,78
2022-12-11T01:40:27.485Z,78
2022-12-11T01:41:30.562Z,78
2022-12-11T01:42:34.433Z,78
2022-12-11T01:43:38.454Z,78
2022-12-11T01:44:41.424Z,77.9
2022-12-11T01:45:44.404Z,77.9
2022-12-11T01:46:47.276Z,77.9
2022-12-11T01:47:50.122Z,78.1
2022-12-11T01:48:53.167Z,78.1
2022-12-11T01:49:56.569Z,77.9
2022-12-11T01:50:59.723Z,77.8
2022-12-11T01:52:02.875Z,77.8
2022-12-11T01:53:05.377Z,77.8
2022-12-11T01:54:08.354Z,77.7
2022-12-11T01:55:13.265Z,77.7
2022-12-11T01:56:16.193Z,77.8
2022-12-11T01:57:18.614Z,77.7
2022-12-11T01:58:21.753Z,77.8
2022-12-11T01:59:25.214Z,77.8
2022-12-11T02:00:28.275Z,77.9
2022-12-11T02:01:31.614Z,77.9
2022-12-11T02:02:35.287Z,78
2022-12-11T02:03:38.529Z,77.9
2022-12-11T02:04:42.161Z,77.8
2022-12-11T02:05:44.653Z,77.8
2022-12-11T02:06:47.799Z,77.8
2022-12-11T02:07:51.364Z,77.7
2022-12-11T02:08:54.716Z,77.8
2022-12-11T02:09:57.477Z,77.8
2022-12-11T02:11:00.265Z,77.8
2022-12-11T02:12:02.138Z,77.7
2022-12-11T02:13:04.912Z,77.7
2022-12-11T02:14:08.088Z,77.7
2022-12-11T02:15:12.949Z,77.6
2022-12-11T02:16:16.570Z,77.7
2022-12-11T02:17:20.024Z,77.7
2022-12-11T02:18:22.252Z,77.7
2022-12-11T02:19:25.308Z,77.7
2022-12-11T02:20:27.723Z,77.6
2022-12-11T02:21:30.692Z,77.6
2022-12-11T02:22:33.384Z,77.6
2022-12-11T02:23:36.349Z,77.5
2022-12-11T02:24:39.778Z,77.6
2022-12-11T02:25:42.191Z,77.8
2022-12-11T02:26:45.342Z,77.8
2022-12-11T02:27:47.760Z,77.6
2022-12-11T02:28:51.203Z,77.7
2022-12-11T02:29:54.612Z,77.8
2022-12-11T02:30:58.387Z,77.8
2022-12-11T02:32:01.909Z,77.7
2022-12-11T02:33:05.257Z,77.7
2022-12-11T02:34:07.758Z,77.6
2022-12-11T02:35:12.436Z,77.6
2022-12-11T02:36:15.431Z,77.5
2022-12-11T02:37:18.498Z,77.5
2022-12-11T02:38:21.206Z,77.5
2022-12-11T02:39:23.985Z,77.5
2022-12-11T02:40:26.478Z,77.5
2022-12-11T02:41:29.673Z,77.5
2022-12-11T02:42:33.430Z,77.6
2022-12-11T02:43:36.683Z,77.6
2022-12-11T02:44:39.533Z,77.5
2022-12-11T02:45:43.006Z,77.5
2022-12-11T02:46:46.609Z,77.6
2022-12-11T02:47:49.860Z,77.6
2022-12-11T02:48:52.637Z,77.6
2022-12-11T02:49:55.888Z,77.6
2022-12-11T02:50:58.317Z,77.5
2022-12-11T02:52:00.829Z,77.4
2022-12-11T02:53:03.327Z,77.5
2022-12-11T02:54:06.469Z,77.6
2022-12-11T02:55:10.730Z,77.7
2022-12-11T02:56:13.992Z,77.6
2022-12-11T02:57:16.984Z,77.5
2022-12-11T02:58:19.783Z,77.5
2022-12-11T02:59:22.389Z,77.5
2022-12-11T03:00:25.705Z,77.5
2022-12-11T03:01:29.513Z,77.7
2022-12-11T03:02:39.696Z,77.9
2022-12-11T03:03:43.052Z,77.8
2022-12-11T03:04:46.304Z,77.8
2022-12-11T03:05:49.074Z,77.7
2022-12-11T03:06:51.599Z,77.5
2022-12-11T03:07:54.348Z,77.4
2022-12-11T03:08:57.785Z,77.4
2022-12-11T03:10:00.645Z,77.3
2022-12-11T03:11:03.420Z,77.3
2022-12-11T03:12:06.571Z,77.3
2022-12-11T03:13:09.617Z,77.3
2022-12-11T03:14:13.050Z,77.3
2022-12-11T03:15:16.096Z,77.3
2022-12-11T03:16:18.819Z,77.2
2022-12-11T03:17:22.328Z,77.2
2022-12-11T03:18:25.429Z,77.2
2022-12-11T03:19:29.112Z,77.2
2022-12-11T03:20:32.168Z,77.4
2022-12-11T03:21:35.498Z,77.4
2022-12-11T03:22:38.546Z,77.3
2022-12-11T03:23:42.540Z,77.4
2022-12-11T03:24:45.312Z,77.3
2022-12-11T03:25:48.640Z,77.3
2022-12-11T03:27:01.429Z,77.2
2022-12-11T03:28:12.924Z,77.3
2022-12-11T03:29:16.009Z,77.4
2022-12-11T03:30:18.237Z,77.4
2022-12-11T03:31:21.380Z,77.4
2022-12-11T03:32:24.923Z,77.4
2022-12-11T03:33:28.965Z,77.4
2022-12-11T03:34:32.394Z,77.3
2022-12-11T03:35:35.092Z,77.3
2022-12-11T03:36:37.583Z,77.2
2022-12-11T03:37:41.112Z,77.3
2022-12-11T03:38:43.657Z,77.4
2022-12-11T03:39:46.081Z,77.3
2022-12-11T03:40:49.557Z,77.3
2022-12-11T03:41:52.417Z,77.2
2022-12-11T03:42:54.607Z,77.4
2022-12-11T03:43:57.345Z,77.4
2022-12-11T03:45:01.121Z,77.3
2022-12-11T03:46:04.581Z,77.2
2022-12-11T03:47:07.819Z,77.3
2022-12-11T03:48:10.705Z,77.7
2022-12-11T03:49:14.101Z,77.9
2022-12-11T03:50:17.433Z,77.6
2022-12-11T03:51:20.222Z,77.5
2022-12-11T03:52:23.411Z,77.9
2022-12-11T03:53:26.534Z,78.2
2022-12-11T03:54:29.879Z,78.3
2022-12-11T03:55:33.206Z,78.1
2022-12-11T03:56:36.156Z,77.9
2022-12-11T03:57:39.129Z,77.3
2022-12-11T03:58:42.539Z,76.9
2022-12-11T03:59:45.417Z,76.8
2022-12-11T04:00:48.547Z,76.7
2022-12-11T04:01:52.037Z,76.9
2022-12-11T04:02:54.673Z,77.5
2022-12-11T04:03:57.441Z,78
2022-12-11T04:05:01.329Z,78.2
2022-12-11T04:06:03.897Z,78.2
2022-12-11T04:07:06.772Z,77.8
2022-12-11T04:08:09.318Z,77.6
2022-12-11T04:09:12.295Z,77.4
2022-12-11T04:10:15.716Z,77
2022-12-11T04:11:18.016Z,76.8
2022-12-11T04:12:20.520Z,76.7
2022-12-11T04:13:23.370Z,76.9
2022-12-11T04:14:25.877Z,76.8
2022-12-11T04:15:28.747Z,76.5
2022-12-11T04:16:32.092Z,76.5
2022-12-11T04:17:34.934Z,76.5
2022-12-11T04:18:38.713Z,76.5
2022-12-11T04:19:41.901Z,76.5
2022-12-11T04:20:45.460Z,76.6
2022-12-11T04:21:48.041Z,76.7
2022-12-11T04:22:50.550Z,76.7
2022-12-11T04:23:52.773Z,76.8
2022-12-11T04:24:55.543Z,76.7
2022-12-11T04:25:57.822Z,76.6
2022-12-11T04:27:00.241Z,76.5
2022-12-11T04:28:03.023Z,76.5
2022-12-11T04:29:05.597Z,76.7
2022-12-11T04:30:08.291Z,76.8
2022-12-11T04:31:11.526Z,76.7
2022-12-11T04:32:14.605Z,76.7
2022-12-11T04:33:17.104Z,76.6
2022-12-11T04:34:19.881Z,76.6
2022-12-11T04:35:23.058Z,76.9
2022-12-11T04:36:26.467Z,76.9
2022-12-11T04:37:29.858Z,77
2022-12-11T04:38:32.910Z,76.9
2022-12-11T04:39:36.317Z,77
2022-12-11T04:40:38.458Z,77.2
2022-12-11T04:41:41.512Z,77.2
2022-12-11T04:42:44.107Z,77.2
2022-12-11T04:43:47.101Z,77.4
2022-12-11T04:44:49.875Z,77.3
2022-12-11T04:45:52.094Z,77.1
2022-12-11T04:46:55.078Z,76.9
2022-12-11T04:47:58.209Z,76.8
2022-12-11T04:49:01.537Z,76.8
2022-12-11T04:50:05.216Z,76.9
2022-12-11T04:51:08.329Z,77.1
2022-12-11T04:52:11.524Z,77.3
2022-12-11T04:53:14.842Z,77.5
2022-12-11T04:54:17.889Z,77.4
2022-12-11T04:55:20.592Z,77.2
2022-12-11T04:56:23.642Z,77.1
2022-12-11T04:57:26.510Z,77.1
2022-12-11T04:58:30.134Z,77.1
2022-12-11T04:59:32.928Z,77.2
2022-12-11T05:00:35.416Z,77.2
2022-12-11T05:01:38.704Z,77.2
2022-12-11T05:02:42.033Z,77.3
2022-12-11T05:03:44.887Z,77.3
2022-12-11T05:04:47.683Z,77.3
2022-12-11T05:05:50.739Z,77.3
2022-12-11T05:06:53.575Z,77.3
2022-12-11T05:07:56.895Z,77.4
2022-12-11T05:09:01.020Z,77.4
2022-12-11T05:10:03.782Z,77.4
2022-12-11T05:11:06.264Z,77.5
2022-12-11T05:12:08.954Z,77.5
2022-12-11T05:13:11.439Z,77.5
2022-12-11T05:14:14.836Z,77.5
2022-12-11T05:15:17.682Z,77.6
2022-12-11T05:16:20.726Z,77.6
2022-12-11T05:17:23.882Z,77.7
2022-12-11T05:18:27.146Z,77.7
2022-12-11T05:19:30.562Z,77.8
2022-12-11T05:20:33.267Z,77.8
2022-12-11T05:21:36.562Z,77.9
2022-12-11T05:22:40.169Z,78
2022-12-11T05:23:43.698Z,78.1
2022-12-11T05:24:47.106Z,78.2
2022-12-11T05:25:49.753Z,78.3
2022-12-11T05:26:52.436Z,78.4
2022-12-11T05:27:55.404Z,78.4
2022-12-11T05:28:58.536Z,78.5
2022-12-11T05:30:01.306Z,78.6
2022-12-11T05:31:03.711Z,78.7
2022-12-11T05:32:06.715Z,78.9
2022-12-11T05:33:08.933Z,78.9
2022-12-11T05:34:12.186Z,78.9
2022-12-11T05:35:15.200Z,79
2022-12-11T05:36:17.971Z,79.1
2022-12-11T05:37:20.668Z,79
2022-12-11T05:38:23.876Z,79
2022-12-11T05:39:27.359Z,79.1
2022-12-11T05:40:30.144Z,79.1
2022-12-11T05:41:33.277Z,79.2
2022-12-11T05:42:36.382Z,79.2
2022-12-11T05:43:39.078Z,79.3
2022-12-11T05:44:42.055Z,79.3
2022-12-11T05:45:45.164Z,79.3
2022-12-11T05:46:48.492Z,79.4
2022-12-11T05:47:52.018Z,79.7
2022-12-11T05:48:55.419Z,79.7
2022-12-11T05:49:57.916Z,79.9
2022-12-11T05:51:00.373Z,79.8
2022-12-11T05:52:03.501Z,79.9
2022-12-11T05:53:06.343Z,80
2022-12-11T05:54:10.096Z,80
2022-12-11T05:55:14.246Z,80
2022-12-11T05:56:18.234Z,80.1
2022-12-11T05:57:21.018Z,80.3
2022-12-11T05:58:23.942Z,80.6
2022-12-11T05:59:26.152Z,80.8
2022-12-11T06:00:37.075Z,80.8
2022-12-11T06:01:40.375Z,80.8
2022-12-11T06:02:44.925Z,80.6
2022-12-11T06:03:47.503Z,80.6
2022-12-11T06:04:50.269Z,80.6
2022-12-11T06:05:53.748Z,80.6
2022-12-11T06:06:56.546Z,80.7
2022-12-11T06:08:00.242Z,80.6
2022-12-11T06:09:03.051Z,80.7
2022-12-11T06:10:06.083Z,80.7
2022-12-11T06:11:08.924Z,80.8
2022-12-11T06:12:12.317Z,80.7
2022-12-11T06:13:15.730Z,80.8
2022-12-11T06:14:18.782Z,80.9
2022-12-11T06:15:21.215Z,81.1
2022-12-11T06:16:23.779Z,81.1
2022-12-11T06:17:26.192Z,81.1
2022-12-11T06:18:29.154Z,81.2
2022-12-11T06:19:38.274Z,81.1
2022-12-11T06:20:41.322Z,81.1
2022-12-11T06:21:44.090Z,81.1
2022-12-11T06:22:46.943Z,81
2022-12-11T06:23:49.718Z,80.8
2022-12-11T06:24:52.158Z,80.8
2022-12-11T06:25:55.038Z,80.9
2022-12-11T06:26:58.521Z,81.2
2022-12-11T06:28:01.948Z,81.3
2022-12-11T06:29:13.791Z,81.4
2022-12-11T06:30:17.146Z,81.5
2022-12-11T06:31:20.620Z,81.4
2022-12-11T06:32:24.294Z,81.3
2022-12-11T06:33:27.344Z,81.2
2022-12-11T06:34:30.106Z,81.2
2022-12-11T06:35:42.403Z,81.3
2022-12-11T06:36:45.274Z,81.4
2022-12-11T06:37:49.279Z,81.5
2022-12-11T06:38:51.848Z,81.5
2022-12-11T06:39:55.537Z,81.3
2022-12-11T06:40:58.637Z,81.2
2022-12-11T06:42:01.547Z,81.1
2022-12-11T06:43:05.318Z,80.9
2022-12-11T06:44:08.672Z,80.8
2022-12-11T06:45:13.540Z,80.7
2022-12-11T06:46:16.768Z,80.5
2022-12-11T06:47:20.131Z,80.4
2022-12-11T06:48:22.908Z,80.4
2022-12-11T06:49:25.329Z,80.3
2022-12-11T06:50:28.118Z,80.4
2022-12-11T06:51:31.109Z,80.4
2022-12-11T06:52:34.077Z,80.4
2022-12-11T06:53:37.499Z,80.4
2022-12-11T06:54:40.329Z,80.4
2022-12-11T06:55:42.817Z,80.4
2022-12-11T06:56:45.655Z,80.4
2022-12-11T06:57:48.837Z,80.7
2022-12-11T06:58:52.278Z,80.7
2022-12-11T06:59:55.439Z,80.8
2022-12-11T07:00:57.921Z,80.8
2022-12-11T07:02:01.290Z,80.8
2022-12-11T07:03:04.711Z,80.9
2022-12-11T07:04:07.776Z,80.8
2022-12-11T07:05:11.788Z,80.8
2022-12-11T07:06:15.795Z,80.8
2022-12-11T07:07:19.131Z,80.7
2022-12-11T07:08:22.194Z,80.8
2022-12-11T07:09:24.947Z,80.7
2022-12-11T07:10:27.946Z,80.6
2022-12-11T07:11:30.719Z,80.4
2022-12-11T07:12:34.124Z,80.3
2022-12-11T07:13:37.882Z,80.3
2022-12-11T07:14:41.006Z,80.2
2022-12-11T07:15:43.702Z,80
2022-12-11T07:16:47.241Z,79.9
2022-12-11T07:17:49.266Z,79.8
2022-12-11T07:18:51.447Z,79.8
2022-12-11T07:19:54.282Z,79.7
2022-12-11T07:20:57.049Z,79.7
2022-12-11T07:22:00.382Z,79.8
2022-12-11T07:23:02.900Z,79.8
2022-12-11T07:24:05.953Z,79.9
2022-12-11T07:25:10.841Z,79.9
2022-12-11T07:26:14.998Z,79.9
2022-12-11T07:27:18.051Z,79.9
2022-12-11T07:28:21.255Z,80.1
2022-12-11T07:29:24.952Z,80.1
2022-12-11T07:30:28.289Z,80.2
2022-12-11T07:31:31.274Z,80.3
2022-12-11T07:32:34.169Z,80.4
2022-12-11T07:33:37.084Z,80.6
2022-12-11T07:34:40.148Z,80.7
2022-12-11T07:35:42.640Z,80.9
2022-12-11T07:36:45.341Z,80.9
2022-12-11T07:37:48.417Z,81.1
2022-12-11T07:38:51.494Z,81.2
2022-12-11T07:39:53.707Z,81.3
2022-12-11T07:40:56.301Z,81.3
2022-12-11T07:41:59.352Z,81.3
2022-12-11T07:43:02.408Z,81.4
2022-12-11T07:44:05.799Z,81.5
2022-12-11T07:45:11.389Z,81.5
2022-12-11T07:46:16.113Z,81.5
2022-12-11T07:47:19.251Z,81.5
2022-12-11T07:48:22.379Z,81.5
2022-12-11T07:49:25.081Z,81.6
2022-12-11T07:50:28.123Z,81.6
2022-12-11T07:51:30.450Z,81.7
2022-12-11T07:52:32.739Z,81.7
2022-12-11T07:53:35.677Z,81.6
2022-12-11T07:54:39.081Z,81.6
2022-12-11T07:55:41.604Z,81.5
2022-12-11T07:56:54.157Z,81.4
2022-12-11T07:57:57.557Z,81.3
2022-12-11T07:59:01.158Z,81.1
2022-12-11T08:00:04.616Z,81
2022-12-11T08:01:08.203Z,81
2022-12-11T08:02:12.027Z,81
2022-12-11T08:03:15.149Z,81.1
2022-12-11T08:04:18.198Z,81.1
2022-12-11T08:05:20.334Z,81.2
2022-12-11T08:06:22.862Z,81.3
2022-12-11T08:07:25.912Z,81.4
2022-12-11T08:08:29.759Z,81.4
2022-12-11T08:09:32.815Z,81.3
2022-12-11T08:10:35.790Z,81.4
2022-12-11T08:11:39.115Z,81.4
2022-12-11T08:12:42.325Z,81.4
2022-12-11T08:13:45.751Z,81.4
2022-12-11T08:14:48.311Z,81.4
2022-12-11T08:15:51.334Z,81.4
2022-12-11T08:16:58.286Z,81.3
2022-12-11T08:18:01.553Z,81.3
2022-12-11T08:19:04.607Z,81.4
2022-12-11T08:20:07.379Z,81.4
2022-12-11T08:21:09.610Z,81.4
2022-12-11T08:22:12.655Z,81.3
2022-12-11T08:23:15.533Z,81.3
2022-12-11T08:24:18.877Z,81.3
2022-12-11T08:25:21.675Z,81.2
2022-12-11T08:26:23.974Z,81.2
2022-12-11T08:27:26.390Z,81.8
2022-12-11T08:28:28.643Z,83.7
2022-12-11T08:29:31.419Z,84.5
2022-12-11T08:30:35.232Z,85
2022-12-11T08:31:38.572Z,83.3
2022-12-11T08:32:42.156Z,82.7
2022-12-11T08:33:44.973Z,82.2
2022-12-11T08:34:47.749Z,81.4
2022-12-11T08:35:50.253Z,81.3
2022-12-11T08:36:52.393Z,80.6
2022-12-11T08:37:54.925Z,80.7
2022-12-11T08:38:57.983Z,80.4
2022-12-11T08:40:00.687Z,80.5
2022-12-11T08:41:03.811Z,80.6
2022-12-11T08:42:06.934Z,80.6
2022-12-11T08:43:10.066Z,80.7
2022-12-11T08:44:18.120Z,80.9
2022-12-11T08:45:20.409Z,81.1
2022-12-11T08:46:23.118Z,80.9
2022-12-11T08:47:26.820Z,80.7
2022-12-11T08:48:30.605Z,80.8
2022-12-11T08:49:35.911Z,80.8
2022-12-11T08:50:38.680Z,80.5
2022-12-11T08:51:40.814Z,80.3
2022-12-11T08:52:43.957Z,80.3
2022-12-11T08:53:46.738Z,80.3
2022-12-11T08:54:49.293Z,80.3
2022-12-11T08:55:51.783Z,80.3
2022-12-11T08:56:59.440Z,80.2
2022-12-11T08:58:01.939Z,80.1
2022-12-11T08:59:04.917Z,79.9
2022-12-11T09:00:07.493Z,79.7
2022-12-11T09:01:10.686Z,79.7
2022-12-11T09:02:13.908Z,79.6
2022-12-11T09:03:17.164Z,79.3
2022-12-11T09:04:20.523Z,79
2022-12-11T09:05:23.646Z,78.8
2022-12-11T09:06:26.950Z,78.6
2022-12-11T09:07:30.393Z,78.5
2022-12-11T09:08:33.085Z,78.4
2022-12-11T09:09:35.786Z,78.4
2022-12-11T09:10:38.584Z,78.6
2022-12-11T09:11:41.436Z,78.6
2022-12-11T09:12:44.861Z,78.8
2022-12-11T09:13:47.561Z,78.5
2022-12-11T09:14:50.920Z,78.6
2022-12-11T09:15:53.938Z,78.3
2022-12-11T09:16:57.105Z,78.6
2022-12-11T09:18:00.266Z,78.6
2022-12-11T09:19:03.374Z,78.6
2022-12-11T09:20:05.920Z,78.6
2022-12-11T09:21:09.274Z,78.6
2022-12-11T09:22:12.045Z,78.5
2022-12-11T09:23:14.050Z,78.2
2022-12-11T09:24:17.532Z,78.1
2022-12-11T09:25:19.975Z,78
2022-12-11T09:26:23.031Z,78.1
2022-12-11T09:27:26.369Z,78.1
2022-12-11T09:28:28.898Z,78
2022-12-11T09:29:32.607Z,77.8
2022-12-11T09:30:35.556Z,77.8
2022-12-11T09:31:38.531Z,77.8
2022-12-11T09:32:41.688Z,77.7
2022-12-11T09:33:44.526Z,77.7
2022-12-11T09:34:47.464Z,77.8
2022-12-11T09:35:50.645Z,77.8
2022-12-11T09:36:54.066Z,77.8
2022-12-11T09:37:56.916Z,77.8
2022-12-11T09:38:59.057Z,77.9
2022-12-11T09:40:08.778Z,77.8
2022-12-11T09:41:12.135Z,77.8
2022-12-11T09:42:15.219Z,77.7
2022-12-11T09:43:17.505Z,77.5
2022-12-11T09:44:20.585Z,77.1
2022-12-11T09:45:23.082Z,77.2
2022-12-11T09:46:34.569Z,77.3
2022-12-11T09:47:37.419Z,77.4
2022-12-11T09:48:40.473Z,77.6
2022-12-11T09:49:43.832Z,77.4
2022-12-11T09:50:46.729Z,77.1
2022-12-11T09:51:50.246Z,77
2022-12-11T09:52:53.585Z,77.3
2022-12-11T09:53:57.301Z,77.6
2022-12-11T09:55:00.288Z,77.9
2022-12-11T09:56:03.772Z,77.9
2022-12-11T09:57:07.408Z,82.1
2022-12-11T09:58:09.829Z,80.3
2022-12-11T09:59:12.328Z,79.5
2022-12-11T10:00:15.391Z,78.8
2022-12-11T10:01:17.472Z,78.4
2022-12-11T10:02:20.799Z,78.2
2022-12-11T10:03:24.245Z,77.9
2022-12-11T10:04:27.364Z,78.4
2022-12-11T10:05:30.509Z,77.9
2022-12-11T10:06:33.534Z,77.3
2022-12-11T10:07:35.826Z,77.2
2022-12-11T10:08:38.697Z,76.9
2022-12-11T10:09:41.669Z,76.7
2022-12-11T10:10:43.967Z,76.7
2022-12-11T10:11:57.088Z,76.6
2022-12-11T10:12:59.699Z,76.7
2022-12-11T10:14:02.746Z,76.9
2022-12-11T10:15:05.908Z,76.9
2022-12-11T10:16:08.773Z,76.8
2022-12-11T10:17:12.073Z,76.6
2022-12-11T10:18:15.585Z,76.2
2022-12-11T10:19:18.642Z,76.1
2022-12-11T10:20:21.772Z,76.1
2022-12-11T10:21:24.229Z,76.2
2022-12-11T10:22:27.988Z,76.2
2022-12-11T10:23:31.726Z,76.3
2022-12-11T10:25:13.309Z,76.3
2022-12-11T10:26:16.713Z,76.4
2022-12-11T10:27:18.999Z,76.5
2022-12-11T10:28:21.666Z,76.5
2022-12-11T10:29:24.375Z,76.5
2022-12-11T10:30:34.961Z,76.3
2022-12-11T10:31:38.653Z,76.3
2022-12-11T10:32:41.751Z,76.2
2022-12-11T10:33:44.518Z,76.2
2022-12-11T10:34:47.299Z,76.2
2022-12-11T10:35:51.026Z,76.4
2022-12-11T10:37:01.436Z,76.4
2022-12-11T10:38:04.623Z,76.4
2022-12-11T10:39:07.816Z,76.3
2022-12-11T10:40:10.618Z,76.3
2022-12-11T10:41:13.680Z,76.3
2022-12-11T10:42:16.808Z,76.1
2022-12-11T10:43:19.589Z,75.9
2022-12-11T10:44:22.294Z,76
2022-12-11T10:45:25.149Z,76.2
2022-12-11T10:46:28.630Z,76.3
2022-12-11T10:47:31.334Z,76.3
2022-12-11T10:48:33.836Z,76.3
2022-12-11T10:49:36.637Z,76.3
2022-12-11T10:50:39.713Z,76.2
2022-12-11T10:51:41.854Z,76.2
2022-12-11T10:52:44.365Z,76.3
2022-12-11T10:53:47.181Z,76.1
2022-12-11T10:54:50.644Z,75.8
2022-12-11T10:55:54.128Z,75.6
2022-12-11T10:56:56.676Z,75
2022-12-11T10:58:00.054Z,74.9
2022-12-11T10:59:03.395Z,74.9
2022-12-11T11:00:06.444Z,75
2022-12-11T11:01:09.795Z,74.9
2022-12-11T11:02:13.397Z,74.4
2022-12-11T11:03:16.073Z,74.4
2022-12-11T11:04:19.153Z,74.5
2022-12-11T11:05:22.006Z,73.9
2022-12-11T11:06:24.798Z,73.7
2022-12-11T11:07:27.952Z,73.6
2022-12-11T11:08:31.368Z,73.7
2022-12-11T11:09:34.361Z,73.6
2022-12-11T11:10:37.203Z,74.1
2022-12-11T11:11:40.599Z,74.5
2022-12-11T11:12:43.477Z,74.3
2022-12-11T11:13:47.189Z,74.1
2022-12-11T11:14:50.316Z,73.8
2022-12-11T11:15:53.938Z,74.3
2022-12-11T11:16:57.429Z,74.9
2022-12-11T11:18:00.289Z,74.8
2022-12-11T11:19:03.389Z,74.6
2022-12-11T11:20:05.968Z,74.5
2022-12-11T11:21:08.557Z,74.2
2022-12-11T11:22:11.636Z,73.9
2022-12-11T11:23:14.413Z,73.9
2022-12-11T11:24:17.210Z,74
2022-12-11T11:25:20.667Z,74
2022-12-11T11:26:23.928Z,74.1
2022-12-11T11:28:15.563Z,74.6
2022-12-11T11:29:18.910Z,74.9
2022-12-11T11:30:21.875Z,75.1
2022-12-11T11:31:24.897Z,75.3
2022-12-11T11:32:27.417Z,75.3
2022-12-11T11:33:30.351Z,75.3
2022-12-11T11:34:33.406Z,75.3
2022-12-11T11:35:38.134Z,75.3
2022-12-11T11:36:48.163Z,75.1
2022-12-11T11:37:51.506Z,75
2022-12-11T11:38:54.586Z,74.9
2022-12-11T11:39:57.292Z,74.8
2022-12-11T11:41:15.827Z,74.8
2022-12-11T11:42:18.937Z,74.7
2022-12-11T11:43:22.564Z,74.8
2022-12-11T11:44:25.271Z,74.9
2022-12-11T11:45:28.019Z,75.1
2022-12-11T11:46:31.240Z,75.4
2022-12-11T11:47:35.335Z,75.5
2022-12-11T11:48:38.488Z,75.6
2022-12-11T11:49:42.214Z,75.6
2022-12-11T11:50:45.191Z,75.8
2022-12-11T11:51:48.034Z,76
2022-12-11T11:52:50.740Z,76.2
2022-12-11T11:53:53.897Z,76.2
2022-12-11T11:54:56.776Z,76.2
2022-12-11T11:55:59.003Z,76.3
2022-12-11T11:57:01.998Z,76.3
2022-12-11T11:58:05.158Z,76.3
2022-12-11T11:59:08.546Z,76.6
2022-12-11T12:00:11.520Z,76.7
2022-12-11T12:01:14.214Z,76.7
2022-12-11T12:02:17.259Z,76.4
2022-12-11T12:03:20.107Z,75.5
2022-12-11T12:04:23.163Z,75.5
2022-12-11T12:05:26.870Z,75.8
2022-12-11T12:06:30.002Z,76.2
2022-12-11T12:07:33.054Z,76.3
2022-12-11T12:08:36.588Z,76.1
2022-12-11T12:09:39.423Z,76.1
2022-12-11T12:10:41.809Z,76.3
2022-12-11T12:11:45.209Z,76.3
2022-12-11T12:12:48.686Z,76.4
2022-12-11T12:13:52.181Z,76.4
2022-12-11T12:14:55.263Z,76.5
2022-12-11T12:15:58.602Z,76.6
2022-12-11T12:17:02.062Z,76.4
2022-12-11T12:18:05.243Z,76.3
2022-12-11T12:19:08.615Z,76.1
2022-12-11T12:20:11.340Z,76
2022-12-11T12:21:13.856Z,76
2022-12-11T12:22:17.283Z,75.9
2022-12-11T12:23:20.341Z,76
2022-12-11T12:24:23.317Z,75.9
2022-12-11T12:25:26.039Z,75.6
2022-12-11T12:26:29.672Z,75.4
2022-12-11T12:28:03.169Z,75.6
2022-12-11T12:29:06.857Z,75.9
2022-12-11T12:30:09.944Z,76.2
2022-12-11T12:31:13.984Z,76.6
2022-12-11T12:32:17.221Z,76.7
2022-12-11T12:33:20.342Z,76.4
2022-12-11T12:34:23.758Z,76.4
2022-12-11T12:35:26.540Z,76.5
2022-12-11T12:36:29.967Z,76.7
2022-12-11T12:37:32.746Z,76.8
2022-12-11T12:38:36.458Z,76.7
2022-12-11T12:39:38.960Z,77
2022-12-11T12:40:41.410Z,77.1
2022-12-11T12:41:44.535Z,77.5
2022-12-11T12:42:47.589Z,77.7
2022-12-11T12:43:51.470Z,77.7
2022-12-11T12:44:54.765Z,77.5
2022-12-11T12:45:57.778Z,77.6
2022-12-11T12:47:00.910Z,77.6
2022-12-11T12:48:03.886Z,77.5
2022-12-11T12:49:07.219Z,77.5
2022-12-11T12:50:09.951Z,77.1
2022-12-11T12:51:13.376Z,76.6
2022-12-11T12:52:16.454Z,76.8
2022-12-11T12:53:19.429Z,77.2
2022-12-11T12:54:21.855Z,76.8
2022-12-11T12:55:24.804Z,76.9
2022-12-11T12:56:27.299Z,77.1
2022-12-11T12:57:30.054Z,77.1
2022-12-11T12:58:33.019Z,77.1
2022-12-11T12:59:36.094Z,77.2
2022-12-11T13:00:39.718Z,76.7
2022-12-11T13:01:43.280Z,76.3
2022-12-11T13:02:46.806Z,76.2
2022-12-11T13:03:49.671Z,76.4
2022-12-11T13:04:59.502Z,76.7
2022-12-11T13:06:02.566Z,76.9
2022-12-11T13:07:05.338Z,77.1
2022-12-11T13:08:08.888Z,77.3
2022-12-11T13:09:11.711Z,77.7
2022-12-11T13:10:14.754Z,77.5
2022-12-11T13:11:17.725Z,77.5
2022-12-11T13:12:20.923Z,77.6
2022-12-11T13:13:24.249Z,77.7
2022-12-11T13:14:26.392Z,77.5
2022-12-11T13:15:29.878Z,77.4
2022-12-11T13:16:34.207Z,77.4
2022-12-11T13:17:37.847Z,77.3
2022-12-11T13:18:41.181Z,77.4
2022-12-11T13:19:44.167Z,77.5
2022-12-11T13:20:47.880Z,77.6
2022-12-11T13:21:50.596Z,77.5
2022-12-11T13:22:53.653Z,77.6
2022-12-11T13:23:57.361Z,77.4
2022-12-11T13:25:00.053Z,77.5
2022-12-11T13:26:02.910Z,77.5
2022-12-11T13:27:05.710Z,77.7
2022-12-11T13:28:09.501Z,77.5
2022-12-11T13:29:12.197Z,77.3
2022-12-11T13:30:15.251Z,77.1
2022-12-11T13:31:18.901Z,76.5
2022-12-11T13:32:22.493Z,76.5
2022-12-11T13:33:25.828Z,76.7
2022-12-11T13:34:29.171Z,76.8
2022-12-11T13:35:32.029Z,76.7
2022-12-11T13:36:35.183Z,76.6
2022-12-11T13:37:37.953Z,76
2022-12-11T13:38:40.777Z,75.9
2022-12-11T13:39:44.155Z,75.7
2022-12-11T13:40:47.075Z,75.5
2022-12-11T13:41:49.850Z,75.4
2022-12-11T13:42:52.889Z,75.8
2022-12-11T13:43:55.503Z,76.2
2022-12-11T13:44:58.857Z,76.2
2022-12-11T13:46:02.526Z,76.1
2022-12-11T13:47:05.441Z,76.2
2022-12-11T13:48:17.218Z,76.3
2022-12-11T13:49:20.577Z,76.5
2022-12-11T13:50:23.721Z,76.7
2022-12-11T13:51:26.777Z,76.8
2022-12-11T13:52:30.397Z,76.8
2022-12-11T13:53:33.471Z,76.9
2022-12-11T13:54:36.813Z,76.9
2022-12-11T13:55:39.657Z,76.9
2022-12-11T13:56:42.521Z,77.3
2022-12-11T13:57:45.305Z,77.3
2022-12-11T13:58:47.444Z,77.4
2022-12-11T13:59:50.866Z,77.5
2022-12-11T14:00:54.149Z,77.6
2022-12-11T14:01:58.219Z,77.6
2022-12-11T14:03:01.382Z,77.7
2022-12-11T14:04:04.222Z,77.9
2022-12-11T14:05:07.568Z,78
2022-12-11T14:06:19.399Z,78
2022-12-11T14:07:22.474Z,78.3